createdAt,value
2024-01-09T05:04:10.131Z,101545.78
2024-01-09T05:08:13.326Z,101549.19
2024-01-09T05:12:15.893Z,101544.19
2024-01-09T05:16:18.493Z,101545.06
2024-01-09T05:20:22.464Z,101547.66
2024-01-09T05:24:25.133Z,101533.00
2024-01-09T05:28:27.738Z,101535.59
2024-01-09T05:32:30.403Z,101549.53
2024-01-09T05:36:34.400Z,101541.75
2024-01-09T05:40:37.046Z,101535.75
2024-01-09T05:44:39.755Z,101541.06
2024-01-09T05:48:43.403Z,101543.72
2024-01-09T05:52:47.523Z,101542.88
2024-01-09T05:56:50.215Z,101544.56
2024-01-09T06:00:52.758Z,101544.53
2024-01-09T06:04:55.410Z,101554.91
2024-01-09T06:08:59.352Z,101545.31
2024-01-09T06:13:02.009Z,101550.56
2024-01-09T06:17:05.760Z,101545.41
2024-01-09T06:21:08.574Z,101546.38
2024-01-09T06:25:14.636Z,101539.38
2024-01-09T06:29:18.407Z,101550.63
2024-01-09T06:33:21.172Z,101560.19
2024-01-09T06:37:24.072Z,101557.56
2024-01-09T06:41:27.980Z,101561.06
2024-01-09T06:45:30.582Z,101570.56
2024-01-09T06:49:33.229Z,101571.44
2024-01-09T06:53:35.949Z,101574.13
2024-01-09T06:57:39.901Z,101574.13
2024-01-09T07:01:42.494Z,101562.81
2024-01-09T07:05:45.648Z,101570.50
2024-01-09T07:09:48.317Z,101583.56
2024-01-09T07:13:52.446Z,101581.75
2024-01-09T07:17:55.413Z,101583.44
2024-01-09T07:21:58.672Z,101600.91
2024-01-09T07:26:01.504Z,101601.81
2024-01-09T07:30:05.850Z,101606.16
2024-01-09T07:34:08.605Z,101608.78
2024-01-09T07:38:11.413Z,101604.28
2024-01-09T07:42:14.659Z,101607.66
2024-01-09T07:46:19.446Z,101611.94
2024-01-09T07:50:22.161Z,101613.63
2024-01-09T07:54:24.630Z,101611.91
2024-01-09T07:58:27.892Z,101612.78
2024-01-09T08:02:32.926Z,101620.44
2024-01-09T08:06:35.926Z,101628.09
2024-01-09T08:10:38.615Z,101627.03
2024-01-09T08:14:41.223Z,101622.59
2024-01-09T08:18:45.224Z,101628.56
2024-01-09T08:22:49.197Z,101638.88
2024-01-09T08:26:52.056Z,101638.50
2024-01-09T08:30:54.986Z,101633.09
2024-01-09T08:34:59.110Z,101635.53
2024-01-09T08:39:03.322Z,101645.06
2024-01-09T08:43:05.961Z,101655.34
2024-01-09T08:47:08.699Z,101649.03
2024-01-09T08:51:16.248Z,101652.25
2024-01-09T08:55:22.470Z,101650.38
2024-01-09T08:59:25.191Z,101649.22
2024-01-09T09:03:27.942Z,101638.22
2024-01-09T09:07:32.280Z,101641.56
2024-01-09T09:11:34.944Z,101647.44
2024-01-09T09:15:37.613Z,101653.44
2024-01-09T09:19:40.326Z,101639.34
2024-01-09T09:23:44.448Z,101645.25
2024-01-09T09:27:47.108Z,101644.16
2024-01-09T09:31:49.690Z,101640.34
2024-01-09T09:35:52.338Z,101649.53
2024-01-09T09:39:56.380Z,101648.41
2024-01-09T09:44:00.357Z,101646.38
2024-01-09T09:48:05.128Z,101635.56
2024-01-09T09:52:08.171Z,101644.91
2024-01-09T09:56:14.937Z,101641.13
2024-01-09T10:00:19.216Z,101629.50
2024-01-09T10:04:30.468Z,101631.56
2024-01-09T10:08:35.783Z,101622.63
2024-01-09T10:12:40.779Z,101625.22
2024-01-09T10:16:50.735Z,101621.34
2024-01-09T10:20:53.516Z,101622.75
2024-01-09T10:24:56.285Z,101613.06
2024-01-09T10:29:00.774Z,101607.78
2024-01-09T10:33:11.606Z,101601.22
2024-01-09T10:37:15.669Z,101597.00
2024-01-09T10:41:19.430Z,101586.03
2024-01-09T10:45:25.586Z,101589.78
2024-01-09T10:49:28.866Z,101580.78
2024-01-09T10:53:33.311Z,101583.06
2024-01-09T10:57:37.737Z,101578.47
2024-01-09T11:01:41.716Z,101575.03
2024-01-09T11:05:44.688Z,101578.88
2024-01-09T11:09:49.219Z,101558.06
2024-01-09T11:13:54.803Z,101560.53
2024-01-09T11:18:05.811Z,101552.13
2024-01-09T11:22:15.633Z,101553.09
2024-01-09T11:26:18.330Z,101550.03
2024-01-09T11:30:24.702Z,101552.38
2024-01-09T11:34:30.256Z,101535.47
2024-01-09T11:38:33.081Z,101536.38
2024-01-09T11:42:36.946Z,101529.94
2024-01-09T11:46:40.775Z,101529.31
2024-01-09T11:50:44.975Z,101519.81
2024-01-09T11:54:48.328Z,101521.28
2024-01-09T11:58:52.524Z,101506.69
2024-01-09T12:02:57.074Z,101503.31
2024-01-09T12:07:01.140Z,101495.94
2024-01-09T12:11:04.522Z,101504.22
2024-01-09T12:15:08.047Z,101496.06
2024-01-09T12:19:10.766Z,101491.97
2024-01-09T12:23:15.089Z,101504.44
2024-01-09T12:27:18.264Z,101494.09
2024-01-09T12:31:25.114Z,101493.72
2024-01-09T12:35:28.040Z,101474.16
2024-01-09T12:39:32.448Z,101471.34
2024-01-09T12:43:37.659Z,101469.88
2024-01-09T12:47:40.367Z,101469.94
2024-01-09T12:51:43.412Z,101471.31
2024-01-09T12:55:47.557Z,101461.72
2024-01-09T12:59:50.328Z,101460.19
2024-01-09T13:03:53.277Z,101457.28
2024-01-09T13:07:56.055Z,101459.69
2024-01-09T13:12:00.639Z,101455.19
2024-01-09T13:16:05.048Z,101444.38
2024-01-09T13:20:10.000Z,101451.84
2024-01-09T13:24:12.765Z,101452.63
2024-01-09T13:28:17.112Z,101439.06
2024-01-09T13:32:19.795Z,101447.78
2024-01-09T13:36:22.475Z,101447.72
2024-01-09T13:40:25.729Z,101450.38
2024-01-09T13:44:29.644Z,101449.41
2024-01-09T13:48:33.009Z,101438.09
2024-01-09T13:52:36.148Z,101436.66
2024-01-09T13:56:38.879Z,101435.06
2024-01-09T14:00:42.837Z,101439.00
2024-01-09T14:04:46.084Z,101438.72
2024-01-09T14:08:48.575Z,101431.00
2024-01-09T14:12:51.414Z,101424.94
2024-01-09T14:16:55.425Z,101421.44
2024-01-09T14:20:58.103Z,101424.22
2024-01-09T14:25:00.892Z,101417.75
2024-01-09T14:29:03.612Z,101414.19
2024-01-09T14:33:07.780Z,101407.69
2024-01-09T14:37:13.629Z,101404.69
2024-01-09T14:41:18.982Z,101392.59
2024-01-09T14:45:21.806Z,101396.69
2024-01-09T14:49:26.167Z,101393.31
2024-01-09T14:53:29.278Z,101398.66
2024-01-09T14:57:32.511Z,101397.22
2024-01-09T15:01:35.141Z,101390.84
2024-01-09T15:05:39.185Z,101394.97
2024-01-09T15:09:41.998Z,101401.97
2024-01-09T15:13:44.683Z,101400.31
2024-01-09T15:17:49.144Z,101409.53
2024-01-09T15:21:53.373Z,101403.28
2024-01-09T15:25:56.058Z,101411.50
2024-01-09T15:29:58.679Z,101419.03
2024-01-09T15:34:04.947Z,101411.84
2024-01-09T15:38:08.988Z,101413.16
2024-01-09T15:42:12.259Z,101419.06
2024-01-09T15:46:22.586Z,101424.88
2024-01-09T15:50:25.772Z,101425.28
2024-01-09T15:54:32.403Z,101415.91
2024-01-09T15:58:36.557Z,101418.56
2024-01-09T16:02:39.225Z,101418.09
2024-01-09T16:06:41.897Z,101416.72
2024-01-09T16:10:46.105Z,101430.19
2024-01-09T16:14:48.761Z,101428.91
2024-01-09T16:18:51.565Z,101429.38
2024-01-09T16:22:54.333Z,101434.13
2024-01-09T16:26:58.367Z,101439.03
2024-01-09T16:31:01.061Z,101442.66
2024-01-09T16:35:04.194Z,101440.28
2024-01-09T16:39:08.506Z,101447.44
2024-01-09T16:43:12.538Z,101451.94
2024-01-09T16:47:16.428Z,101445.28
2024-01-09T16:51:21.739Z,101444.53
2024-01-09T16:55:25.706Z,101446.44
2024-01-09T16:59:29.778Z,101442.16
2024-01-09T17:03:33.027Z,101446.56
2024-01-09T17:07:35.739Z,101442.22
2024-01-09T17:11:41.542Z,101449.38
2024-01-09T17:15:45.727Z,101449.66
2024-01-09T17:19:48.645Z,101447.53
2024-01-09T17:23:51.326Z,101442.59
2024-01-09T17:27:54.161Z,101437.66
2024-01-09T17:31:58.289Z,101433.69
2024-01-09T17:36:00.997Z,101446.59
2024-01-09T17:40:04.360Z,101431.59
2024-01-09T17:44:07.045Z,101437.38
2024-01-09T17:48:11.275Z,101431.72
2024-01-09T17:52:13.984Z,101429.53
2024-01-09T17:56:16.789Z,101432.56
2024-01-09T18:00:20.368Z,101434.56
2024-01-09T18:04:24.513Z,101432.00
2024-01-09T18:08:27.167Z,101424.19
2024-01-09T18:12:30.974Z,101428.53
2024-01-09T18:16:34.940Z,101430.06
2024-01-09T18:20:40.900Z,101429.09
2024-01-09T18:24:43.507Z,101444.16
2024-01-09T18:28:48.272Z,101450.81
2024-01-09T18:32:51.083Z,101434.50
2024-01-09T18:36:55.150Z,101437.97
2024-01-09T18:40:57.800Z,101439.50
2024-01-09T18:45:00.434Z,101450.38
2024-01-09T18:49:03.625Z,101452.44
2024-01-09T18:53:09.712Z,101451.75
2024-01-09T18:57:12.436Z,101453.47
2024-01-09T19:01:15.391Z,101452.00
2024-01-09T19:05:18.127Z,101452.84
2024-01-09T19:09:23.391Z,101459.09
2024-01-09T19:13:26.263Z,101444.38
2024-01-09T19:17:28.906Z,101446.06
2024-01-09T19:21:31.564Z,101443.50
2024-01-09T19:25:35.831Z,101453.16
2024-01-09T19:29:38.547Z,101441.63
2024-01-09T19:33:41.273Z,101450.25
2024-01-09T19:37:46.028Z,101448.50
2024-01-09T19:41:50.232Z,101447.75
2024-01-09T19:45:52.880Z,101441.81
2024-01-09T19:49:55.750Z,101447.03
2024-01-09T19:53:59.163Z,101447.88
2024-01-09T19:58:03.845Z,101445.34
2024-01-09T20:02:07.673Z,101440.13
2024-01-09T20:06:19.211Z,101436.88
2024-01-09T20:10:21.912Z,101431.84
2024-01-09T20:14:27.439Z,101428.50
2024-01-09T20:18:30.396Z,101422.47
2024-01-09T20:22:33.219Z,101419.63
2024-01-09T20:26:36.613Z,101426.94
2024-01-09T20:30:41.423Z,101431.56
2024-01-09T20:34:44.177Z,101426.28
2024-01-09T20:38:47.114Z,101419.06
2024-01-09T20:42:49.659Z,101409.56
2024-01-09T20:46:54.103Z,101410.72
2024-01-09T20:50:57.503Z,101401.88
2024-01-09T20:55:03.868Z,101400.41
2024-01-09T20:59:06.594Z,101405.72
2024-01-09T21:03:10.639Z,101410.78
2024-01-09T21:07:14.301Z,101397.72
2024-01-09T21:11:17.275Z,101398.84
2024-01-09T21:15:22.864Z,101403.41
2024-01-09T21:19:27.856Z,101405.22
2024-01-09T21:23:35.640Z,101404.28
2024-01-09T21:27:44.603Z,101398.34
2024-01-09T21:31:48.073Z,101394.00
2024-01-09T21:35:52.087Z,101400.88
2024-01-09T21:39:55.022Z,101394.97
2024-01-09T21:43:57.659Z,101402.69
2024-01-09T21:48:00.292Z,101402.69
2024-01-09T21:52:05.036Z,101401.13
2024-01-09T21:56:07.877Z,101403.91
